sensor_id;sensor_type;location;lat;lon;timestamp;P1;durP1;ratioP1;P2;durP2;ratioP2
13445;SDS011;6795;51.232;3.764;2023-04-25T00:00:30;14.48;;;2.70;;
13445;SDS011;6795;51.232;3.764;2023-04-25T00:02:59;12.30;;;2.75;;
13445;SDS011;6795;51.232;3.764;2023-04-25T00:05:29;18.17;;;3.15;;
13445;SDS011;6795;51.232;3.764;2023-04-25T00:07:57;14.10;;;3.28;;
13445;SDS011;6795;51.232;3.764;2023-04-25T00:10:26;11.43;;;3.33;;
13445;SDS011;6795;51.232;3.764;2023-04-25T00:12:55;14.93;;;2.42;;
13445;SDS011;6795;51.232;3.764;2023-04-25T00:15:23;20.50;;;3.17;;
13445;SDS011;6795;51.232;3.764;2023-04-25T00:17:52;20.13;;;2.97;;
13445;SDS011;6795;51.232;3.764;2023-04-25T00:20:21;14.20;;;2.88;;
13445;SDS011;6795;51.232;3.764;2023-04-25T00:22:51;8.20;;;2.97;;
13445;SDS011;6795;51.232;3.764;2023-04-25T00:25:20;15.50;;;3.65;;
13445;SDS011;6795;51.232;3.764;2023-04-25T00:27:48;16.05;;;3.70;;
13445;SDS011;6795;51.232;3.764;2023-04-25T00:30:17;14.55;;;2.28;;
13445;SDS011;6795;51.232;3.764;2023-04-25T00:32:46;19.67;;;2.88;;
13445;SDS011;6795;51.232;3.764;2023-04-25T00:35:15;12.30;;;2.72;;
13445;SDS011;6795;51.232;3.764;2023-04-25T00:37:44;14.75;;;2.30;;
13445;SDS011;6795;51.232;3.764;2023-04-25T00:40:14;18.70;;;3.15;;
13445;SDS011;6795;51.232;3.764;2023-04-25T00:42:42;18.60;;;2.65;;
13445;SDS011;6795;51.232;3.764;2023-04-25T00:45:13;19.95;;;2.95;;
13445;SDS011;6795;51.232;3.764;2023-04-25T00:47:42;17.13;;;3.83;;
13445;SDS011;6795;51.232;3.764;2023-04-25T00:50:11;14.38;;;3.35;;
13445;SDS011;6795;51.232;3.764;2023-04-25T00:52:40;15.93;;;2.65;;
13445;SDS011;6795;51.232;3.764;2023-04-25T00:55:08;17.05;;;3.33;;
13445;SDS011;6795;51.232;3.764;2023-04-25T00:57:39;13.35;;;2.90;;
13445;SDS011;6795;51.232;3.764;2023-04-25T01:00:09;12.95;;;2.55;;
13445;SDS011;6795;51.232;3.764;2023-04-25T01:02:38;17.17;;;2.80;;
13445;SDS011;6795;51.232;3.764;2023-04-25T01:05:08;12.57;;;3.13;;
13445;SDS011;6795;51.232;3.764;2023-04-25T01:07:40;15.52;;;2.72;;
13445;SDS011;6795;51.232;3.764;2023-04-25T01:10:09;7.75;;;2.47;;
13445;SDS011;6795;51.232;3.764;2023-04-25T01:12:39;14.38;;;3.17;;
13445;SDS011;6795;51.232;3.764;2023-04-25T01:15:08;19.55;;;3.28;;
13445;SDS011;6795;51.232;3.764;2023-04-25T01:17:37;16.25;;;3.72;;
13445;SDS011;6795;51.232;3.764;2023-04-25T01:20:07;13.48;;;3.03;;
13445;SDS011;6795;51.232;3.764;2023-04-25T01:22:38;21.58;;;3.58;;
13445;SDS011;6795;51.232;3.764;2023-04-25T01:25:07;19.20;;;4.25;;
13445;SDS011;6795;51.232;3.764;2023-04-25T01:27:36;25.35;;;4.68;;
13445;SDS011;6795;51.232;3.764;2023-04-25T01:30:07;13.05;;;3.72;;
13445;SDS011;6795;51.232;3.764;2023-04-25T01:32:36;13.43;;;3.50;;
13445;SDS011;6795;51.232;3.764;2023-04-25T01:35:06;15.82;;;3.58;;
13445;SDS011;6795;51.232;3.764;2023-04-25T01:37:38;13.38;;;3.45;;
13445;SDS011;6795;51.232;3.764;2023-04-25T01:40:07;15.10;;;2.78;;
13445;SDS011;6795;51.232;3.764;2023-04-25T01:42:38;20.27;;;4.00;;
13445;SDS011;6795;51.232;3.764;2023-04-25T01:45:08;14.02;;;3.42;;
13445;SDS011;6795;51.232;3.764;2023-04-25T01:47:38;20.55;;;3.95;;
13445;SDS011;6795;51.232;3.764;2023-04-25T01:50:09;16.27;;;4.30;;
13445;SDS011;6795;51.232;3.764;2023-04-25T01:52:40;13.88;;;2.70;;
13445;SDS011;6795;51.232;3.764;2023-04-25T01:55:09;13.23;;;3.35;;
13445;SDS011;6795;51.232;3.764;2023-04-25T01:57:37;13.15;;;3.35;;
13445;SDS011;6795;51.232;3.764;2023-04-25T02:00:06;12.48;;;3.47;;
13445;SDS011;6795;51.232;3.764;2023-04-25T02:02:36;19.45;;;3.85;;
13445;SDS011;6795;51.232;3.764;2023-04-25T02:05:06;16.65;;;3.85;;
13445;SDS011;6795;51.232;3.764;2023-04-25T02:07:35;13.13;;;3.63;;
13445;SDS011;6795;51.232;3.764;2023-04-25T02:10:05;20.27;;;3.97;;
13445;SDS011;6795;51.232;3.764;2023-04-25T02:12:35;15.73;;;3.47;;
13445;SDS011;6795;51.232;3.764;2023-04-25T02:15:04;17.80;;;3.65;;
13445;SDS011;6795;51.232;3.764;2023-04-25T02:17:33;16.98;;;3.40;;
13445;SDS011;6795;51.232;3.764;2023-04-25T02:20:02;18.30;;;3.05;;
13445;SDS011;6795;51.232;3.764;2023-04-25T02:22:31;13.38;;;3.25;;
13445;SDS011;6795;51.232;3.764;2023-04-25T02:25:00;15.00;;;2.85;;
13445;SDS011;6795;51.232;3.764;2023-04-25T02:27:32;13.45;;;2.80;;
13445;SDS011;6795;51.232;3.764;2023-04-25T02:30:01;14.77;;;3.10;;
13445;SDS011;6795;51.232;3.764;2023-04-25T02:32:31;11.70;;;2.92;;
13445;SDS011;6795;51.232;3.764;2023-04-25T02:35:00;11.00;;;2.88;;
13445;SDS011;6795;51.232;3.764;2023-04-25T02:37:30;13.93;;;4.00;;
13445;SDS011;6795;51.232;3.764;2023-04-25T02:39:59;11.85;;;3.08;;
13445;SDS011;6795;51.232;3.764;2023-04-25T02:42:27;9.90;;;2.80;;
13445;SDS011;6795;51.232;3.764;2023-04-25T02:44:57;17.70;;;3.80;;
13445;SDS011;6795;51.232;3.764;2023-04-25T02:47:26;10.63;;;2.80;;
13445;SDS011;6795;51.232;3.764;2023-04-25T02:49:56;12.60;;;2.75;;
13445;SDS011;6795;51.232;3.764;2023-04-25T02:52:24;14.52;;;2.90;;
13445;SDS011;6795;51.232;3.764;2023-04-25T02:54:53;14.18;;;2.65;;
13445;SDS011;6795;51.232;3.764;2023-04-25T02:57:21;11.27;;;2.85;;
13445;SDS011;6795;51.232;3.764;2023-04-25T02:59:50;13.15;;;2.88;;
13445;SDS011;6795;51.232;3.764;2023-04-25T03:02:20;12.93;;;3.08;;
13445;SDS011;6795;51.232;3.764;2023-04-25T03:04:49;7.82;;;1.85;;
13445;SDS011;6795;51.232;3.764;2023-04-25T03:07:18;10.05;;;2.13;;
13445;SDS011;6795;51.232;3.764;2023-04-25T03:09:46;4.80;;;2.28;;
13445;SDS011;6795;51.232;3.764;2023-04-25T03:12:15;11.38;;;2.47;;
13445;SDS011;6795;51.232;3.764;2023-04-25T03:14:44;8.98;;;2.03;;
13445;SDS011;6795;51.232;3.764;2023-04-25T03:17:12;8.93;;;1.88;;
13445;SDS011;6795;51.232;3.764;2023-04-25T03:19:43;8.15;;;1.73;;
13445;SDS011;6795;51.232;3.764;2023-04-25T03:22:11;16.30;;;2.47;;
13445;SDS011;6795;51.232;3.764;2023-04-25T03:24:40;8.45;;;2.05;;
13445;SDS011;6795;51.232;3.764;2023-04-25T03:27:09;12.50;;;2.40;;
13445;SDS011;6795;51.232;3.764;2023-04-25T03:29:37;12.38;;;2.70;;
13445;SDS011;6795;51.232;3.764;2023-04-25T03:32:06;10.85;;;2.15;;
13445;SDS011;6795;51.232;3.764;2023-04-25T03:34:35;12.52;;;2.45;;
13445;SDS011;6795;51.232;3.764;2023-04-25T03:37:05;10.80;;;2.90;;
13445;SDS011;6795;51.232;3.764;2023-04-25T03:39:34;13.65;;;3.58;;
13445;SDS011;6795;51.232;3.764;2023-04-25T03:42:04;12.98;;;3.30;;
13445;SDS011;6795;51.232;3.764;2023-04-25T03:44:32;15.43;;;3.30;;
13445;SDS011;6795;51.232;3.764;2023-04-25T03:47:01;10.98;;;3.63;;
13445;SDS011;6795;51.232;3.764;2023-04-25T03:49:30;12.10;;;2.92;;
13445;SDS011;6795;51.232;3.764;2023-04-25T03:51:59;14.15;;;2.83;;
13445;SDS011;6795;51.232;3.764;2023-04-25T03:54:29;10.88;;;2.90;;
13445;SDS011;6795;51.232;3.764;2023-04-25T03:56:57;10.77;;;3.28;;
13445;SDS011;6795;51.232;3.764;2023-04-25T03:59:26;23.45;;;10.45;;
13445;SDS011;6795;51.232;3.764;2023-04-25T04:01:54;17.20;;;7.05;;
13445;SDS011;6795;51.232;3.764;2023-04-25T04:04:23;23.08;;;6.25;;
13445;SDS011;6795;51.232;3.764;2023-04-25T04:06:51;17.85;;;3.65;;
13445;SDS011;6795;51.232;3.764;2023-04-25T04:09:20;10.32;;;2.83;;
13445;SDS011;6795;51.232;3.764;2023-04-25T04:11:50;14.73;;;4.63;;
13445;SDS011;6795;51.232;3.764;2023-04-25T04:14:18;20.42;;;9.07;;
13445;SDS011;6795;51.232;3.764;2023-04-25T04:16:47;20.15;;;8.48;;
13445;SDS011;6795;51.232;3.764;2023-04-25T04:19:15;21.40;;;8.68;;
13445;SDS011;6795;51.232;3.764;2023-04-25T04:21:44;12.70;;;4.72;;
13445;SDS011;6795;51.232;3.764;2023-04-25T04:24:12;17.40;;;4.25;;
13445;SDS011;6795;51.232;3.764;2023-04-25T04:26:41;12.63;;;5.50;;
13445;SDS011;6795;51.232;3.764;2023-04-25T04:29:12;12.60;;;4.35;;
13445;SDS011;6795;51.232;3.764;2023-04-25T04:31:47;13.93;;;4.07;;
13445;SDS011;6795;51.232;3.764;2023-04-25T04:34:17;13.88;;;3.40;;
13445;SDS011;6795;51.232;3.764;2023-04-25T04:36:45;16.70;;;4.72;;
13445;SDS011;6795;51.232;3.764;2023-04-25T04:39:15;11.05;;;4.13;;
13445;SDS011;6795;51.232;3.764;2023-04-25T04:41:43;9.77;;;3.55;;
13445;SDS011;6795;51.232;3.764;2023-04-25T04:44:13;10.05;;;3.97;;
13445;SDS011;6795;51.232;3.764;2023-04-25T04:46:42;13.23;;;4.05;;
13445;SDS011;6795;51.232;3.764;2023-04-25T04:49:11;14.45;;;4.25;;
13445;SDS011;6795;51.232;3.764;2023-04-25T04:51:40;11.52;;;4.50;;
13445;SDS011;6795;51.232;3.764;2023-04-25T04:54:10;13.52;;;4.85;;
13445;SDS011;6795;51.232;3.764;2023-04-25T04:56:39;11.95;;;4.20;;
13445;SDS011;6795;51.232;3.764;2023-04-25T04:59:08;13.40;;;4.95;;
13445;SDS011;6795;51.232;3.764;2023-04-25T05:01:38;23.52;;;5.10;;
13445;SDS011;6795;51.232;3.764;2023-04-25T05:04:06;10.73;;;4.47;;
13445;SDS011;6795;51.232;3.764;2023-04-25T05:06:35;14.35;;;5.00;;
13445;SDS011;6795;51.232;3.764;2023-04-25T05:09:03;17.20;;;5.32;;
13445;SDS011;6795;51.232;3.764;2023-04-25T05:11:32;14.52;;;3.47;;
13445;SDS011;6795;51.232;3.764;2023-04-25T05:14:00;12.30;;;3.25;;
13445;SDS011;6795;51.232;3.764;2023-04-25T05:16:29;16.20;;;3.63;;
13445;SDS011;6795;51.232;3.764;2023-04-25T05:18:58;12.40;;;3.58;;
13445;SDS011;6795;51.232;3.764;2023-04-25T05:21:27;15.25;;;2.90;;
13445;SDS011;6795;51.232;3.764;2023-04-25T05:23:55;20.00;;;3.00;;
13445;SDS011;6795;51.232;3.764;2023-04-25T05:26:24;10.85;;;1.88;;
13445;SDS011;6795;51.232;3.764;2023-04-25T05:28:52;16.90;;;2.72;;
13445;SDS011;6795;51.232;3.764;2023-04-25T05:31:20;14.60;;;2.50;;
13445;SDS011;6795;51.232;3.764;2023-04-25T05:33:49;14.02;;;3.70;;
13445;SDS011;6795;51.232;3.764;2023-04-25T05:36:19;15.90;;;2.63;;
13445;SDS011;6795;51.232;3.764;2023-04-25T05:38:47;9.88;;;2.15;;
13445;SDS011;6795;51.232;3.764;2023-04-25T05:41:16;7.22;;;2.28;;
13445;SDS011;6795;51.232;3.764;2023-04-25T05:43:44;12.60;;;3.13;;
13445;SDS011;6795;51.232;3.764;2023-04-25T05:46:15;8.60;;;1.63;;
13445;SDS011;6795;51.232;3.764;2023-04-25T05:48:44;7.75;;;1.73;;
13445;SDS011;6795;51.232;3.764;2023-04-25T05:51:13;7.78;;;2.03;;
13445;SDS011;6795;51.232;3.764;2023-04-25T05:53:42;7.30;;;3.25;;
13445;SDS011;6795;51.232;3.764;2023-04-25T05:56:11;7.38;;;1.20;;
13445;SDS011;6795;51.232;3.764;2023-04-25T05:58:39;5.22;;;1.20;;
13445;SDS011;6795;51.232;3.764;2023-04-25T06:01:08;5.78;;;1.73;;
13445;SDS011;6795;51.232;3.764;2023-04-25T06:03:36;7.28;;;1.30;;
13445;SDS011;6795;51.232;3.764;2023-04-25T06:06:06;4.38;;;0.43;;
13445;SDS011;6795;51.232;3.764;2023-04-25T06:08:34;7.10;;;1.48;;
13445;SDS011;6795;51.232;3.764;2023-04-25T06:11:05;6.38;;;0.63;;
13445;SDS011;6795;51.232;3.764;2023-04-25T06:13:33;6.93;;;0.60;;
13445;SDS011;6795;51.232;3.764;2023-04-25T06:16:02;7.35;;;0.50;;
13445;SDS011;6795;51.232;3.764;2023-04-25T06:18:31;3.58;;;0.52;;
13445;SDS011;6795;51.232;3.764;2023-04-25T06:20:59;5.43;;;0.93;;
13445;SDS011;6795;51.232;3.764;2023-04-25T06:23:28;6.85;;;1.23;;
13445;SDS011;6795;51.232;3.764;2023-04-25T06:25:56;5.75;;;0.73;;
13445;SDS011;6795;51.232;3.764;2023-04-25T06:28:26;7.15;;;0.88;;
13445;SDS011;6795;51.232;3.764;2023-04-25T06:30:54;8.73;;;0.50;;
13445;SDS011;6795;51.232;3.764;2023-04-25T06:33:23;14.73;;;1.10;;
13445;SDS011;6795;51.232;3.764;2023-04-25T06:35:51;5.95;;;0.70;;
13445;SDS011;6795;51.232;3.764;2023-04-25T06:38:20;2.92;;;0.45;;
13445;SDS011;6795;51.232;3.764;2023-04-25T06:40:48;7.78;;;0.70;;
13445;SDS011;6795;51.232;3.764;2023-04-25T06:43:17;5.82;;;0.90;;
13445;SDS011;6795;51.232;3.764;2023-04-25T06:45:47;3.30;;;0.70;;
13445;SDS011;6795;51.232;3.764;2023-04-25T06:48:15;7.28;;;0.73;;
13445;SDS011;6795;51.232;3.764;2023-04-25T06:50:44;4.00;;;0.77;;
13445;SDS011;6795;51.232;3.764;2023-04-25T06:53:13;4.18;;;0.45;;
13445;SDS011;6795;51.232;3.764;2023-04-25T06:55:41;1.13;;;0.30;;
13445;SDS011;6795;51.232;3.764;2023-04-25T06:58:10;3.25;;;0.50;;
13445;SDS011;6795;51.232;3.764;2023-04-25T07:00:39;5.47;;;0.93;;
13445;SDS011;6795;51.232;3.764;2023-04-25T07:03:09;4.20;;;0.63;;
13445;SDS011;6795;51.232;3.764;2023-04-25T07:05:38;5.80;;;0.65;;
13445;SDS011;6795;51.232;3.764;2023-04-25T07:08:07;4.93;;;0.32;;
13445;SDS011;6795;51.232;3.764;2023-04-25T07:10:35;0.95;;;0.28;;
13445;SDS011;6795;51.232;3.764;2023-04-25T07:13:04;1.65;;;0.20;;
13445;SDS011;6795;51.232;3.764;2023-04-25T07:15:33;4.78;;;0.30;;
13445;SDS011;6795;51.232;3.764;2023-04-25T07:18:01;2.72;;;0.20;;
13445;SDS011;6795;51.232;3.764;2023-04-25T07:20:32;0.93;;;0.20;;
13445;SDS011;6795;51.232;3.764;2023-04-25T07:23:00;3.63;;;0.30;;
13445;SDS011;6795;51.232;3.764;2023-04-25T07:25:29;1.75;;;0.20;;
13445;SDS011;6795;51.232;3.764;2023-04-25T07:27:58;2.63;;;0.35;;
13445;SDS011;6795;51.232;3.764;2023-04-25T07:30:26;0.90;;;0.30;;
13445;SDS011;6795;51.232;3.764;2023-04-25T07:32:55;2.72;;;0.40;;
13445;SDS011;6795;51.232;3.764;2023-04-25T07:35:24;3.90;;;0.20;;
13445;SDS011;6795;51.232;3.764;2023-04-25T07:37:53;2.85;;;0.30;;
13445;SDS011;6795;51.232;3.764;2023-04-25T07:40:22;3.20;;;0.30;;
13445;SDS011;6795;51.232;3.764;2023-04-25T07:42:51;1.17;;;0.25;;
13445;SDS011;6795;51.232;3.764;2023-04-25T07:45:19;3.10;;;0.30;;
13445;SDS011;6795;51.232;3.764;2023-04-25T07:47:47;2.03;;;0.17;;
13445;SDS011;6795;51.232;3.764;2023-04-25T07:50:16;2.22;;;0.20;;
13445;SDS011;6795;51.232;3.764;2023-04-25T07:52:45;1.63;;;0.28;;
13445;SDS011;6795;51.232;3.764;2023-04-25T07:55:14;4.05;;;0.30;;
13445;SDS011;6795;51.232;3.764;2023-04-25T07:57:43;5.88;;;0.73;;
13445;SDS011;6795;51.232;3.764;2023-04-25T08:00:12;4.15;;;0.50;;
13445;SDS011;6795;51.232;3.764;2023-04-25T08:02:41;2.67;;;0.47;;
13445;SDS011;6795;51.232;3.764;2023-04-25T08:05:10;3.40;;;0.40;;
13445;SDS011;6795;51.232;3.764;2023-04-25T08:07:41;5.97;;;0.65;;
13445;SDS011;6795;51.232;3.764;2023-04-25T08:10:10;3.85;;;0.30;;
13445;SDS011;6795;51.232;3.764;2023-04-25T08:12:39;3.67;;;0.52;;
13445;SDS011;6795;51.232;3.764;2023-04-25T08:15:08;2.88;;;0.20;;
13445;SDS011;6795;51.232;3.764;2023-04-25T08:17:37;3.03;;;0.30;;
13445;SDS011;6795;51.232;3.764;2023-04-25T08:20:06;3.70;;;0.30;;
13445;SDS011;6795;51.232;3.764;2023-04-25T08:22:36;3.67;;;0.30;;
13445;SDS011;6795;51.232;3.764;2023-04-25T08:25:05;3.45;;;0.30;;
13445;SDS011;6795;51.232;3.764;2023-04-25T08:27:33;0.52;;;0.20;;
13445;SDS011;6795;51.232;3.764;2023-04-25T08:30:04;8.10;;;1.45;;
13445;SDS011;6795;51.232;3.764;2023-04-25T08:32:33;3.58;;;0.30;;
13445;SDS011;6795;51.232;3.764;2023-04-25T08:35:04;2.17;;;0.20;;
13445;SDS011;6795;51.232;3.764;2023-04-25T08:37:33;3.53;;;0.40;;
13445;SDS011;6795;51.232;3.764;2023-04-25T08:40:03;2.03;;;0.30;;
13445;SDS011;6795;51.232;3.764;2023-04-25T08:42:33;8.52;;;0.68;;
13445;SDS011;6795;51.232;3.764;2023-04-25T08:45:04;8.32;;;0.50;;
13445;SDS011;6795;51.232;3.764;2023-04-25T08:47:33;2.13;;;0.10;;
13445;SDS011;6795;51.232;3.764;2023-04-25T08:50:04;1.75;;;0.20;;
13445;SDS011;6795;51.232;3.764;2023-04-25T08:52:35;2.75;;;0.20;;
13445;SDS011;6795;51.232;3.764;2023-04-25T08:55:07;1.27;;;0.20;;
13445;SDS011;6795;51.232;3.764;2023-04-25T08:57:38;1.92;;;0.30;;
13445;SDS011;6795;51.232;3.764;2023-04-25T09:00:11;1.45;;;0.10;;
13445;SDS011;6795;51.232;3.764;2023-04-25T09:02:42;2.55;;;0.22;;
13445;SDS011;6795;51.232;3.764;2023-04-25T09:05:12;2.35;;;0.28;;
13445;SDS011;6795;51.232;3.764;2023-04-25T09:07:41;0.75;;;0.30;;
13445;SDS011;6795;51.232;3.764;2023-04-25T09:10:09;1.20;;;0.40;;
13445;SDS011;6795;51.232;3.764;2023-04-25T09:12:38;5.50;;;0.75;;
13445;SDS011;6795;51.232;3.764;2023-04-25T09:15:07;3.08;;;0.47;;
13445;SDS011;6795;51.232;3.764;2023-04-25T09:17:38;4.50;;;0.60;;
13445;SDS011;6795;51.232;3.764;2023-04-25T09:20:12;5.78;;;0.70;;
13445;SDS011;6795;51.232;3.764;2023-04-25T09:22:41;2.67;;;0.40;;
13445;SDS011;6795;51.232;3.764;2023-04-25T09:25:13;6.13;;;0.60;;
13445;SDS011;6795;51.232;3.764;2023-04-25T09:27:50;3.17;;;0.45;;
13445;SDS011;6795;51.232;3.764;2023-04-25T09:30:28;3.55;;;0.30;;
13445;SDS011;6795;51.232;3.764;2023-04-25T09:32:59;6.43;;;0.30;;
13445;SDS011;6795;51.232;3.764;2023-04-25T09:35:35;3.83;;;0.50;;
13445;SDS011;6795;51.232;3.764;2023-04-25T09:38:08;3.97;;;0.22;;
13445;SDS011;6795;51.232;3.764;2023-04-25T09:40:39;1.85;;;0.20;;
13445;SDS011;6795;51.232;3.764;2023-04-25T09:43:18;1.80;;;0.30;;
13445;SDS011;6795;51.232;3.764;2023-04-25T09:45:47;1.55;;;0.20;;
13445;SDS011;6795;51.232;3.764;2023-04-25T09:48:20;3.80;;;0.40;;
13445;SDS011;6795;51.232;3.764;2023-04-25T09:50:59;3.50;;;0.20;;
13445;SDS011;6795;51.232;3.764;2023-04-25T09:53:33;7.03;;;0.52;;
13445;SDS011;6795;51.232;3.764;2023-04-25T09:56:03;4.78;;;0.52;;
13445;SDS011;6795;51.232;3.764;2023-04-25T09:58:33;2.13;;;0.30;;
13445;SDS011;6795;51.232;3.764;2023-04-25T10:01:03;0.38;;;0.20;;
13445;SDS011;6795;51.232;3.764;2023-04-25T10:03:35;3.17;;;0.30;;
13445;SDS011;6795;51.232;3.764;2023-04-25T10:06:07;5.65;;;0.30;;
13445;SDS011;6795;51.232;3.764;2023-04-25T10:08:37;1.45;;;0.40;;
13445;SDS011;6795;51.232;3.764;2023-04-25T10:11:06;2.28;;;0.20;;
13445;SDS011;6795;51.232;3.764;2023-04-25T10:13:35;6.90;;;0.50;;
13445;SDS011;6795;51.232;3.764;2023-04-25T10:16:04;3.15;;;0.30;;
13445;SDS011;6795;51.232;3.764;2023-04-25T10:18:37;0.98;;;0.17;;
13445;SDS011;6795;51.232;3.764;2023-04-25T10:21:05;1.65;;;0.20;;
13445;SDS011;6795;51.232;3.764;2023-04-25T10:23:35;1.02;;;0.13;;
13445;SDS011;6795;51.232;3.764;2023-04-25T10:26:04;1.20;;;0.30;;
13445;SDS011;6795;51.232;3.764;2023-04-25T10:31:22;1.95;;;0.10;;
13445;SDS011;6795;51.232;3.764;2023-04-25T10:33:52;2.95;;;0.40;;
13445;SDS011;6795;51.232;3.764;2023-04-25T10:36:21;1.08;;;0.10;;
13445;SDS011;6795;51.232;3.764;2023-04-25T10:38:51;3.78;;;0.30;;
13445;SDS011;6795;51.232;3.764;2023-04-25T10:41:21;2.20;;;0.20;;
13445;SDS011;6795;51.232;3.764;2023-04-25T10:43:50;1.20;;;0.22;;
13445;SDS011;6795;51.232;3.764;2023-04-25T10:46:27;0.40;;;0.13;;
13445;SDS011;6795;51.232;3.764;2023-04-25T10:48:59;1.80;;;0.20;;
13445;SDS011;6795;51.232;3.764;2023-04-25T10:51:29;1.77;;;0.20;;
13445;SDS011;6795;51.232;3.764;2023-04-25T10:54:19;2.13;;;0.22;;
13445;SDS011;6795;51.232;3.764;2023-04-25T10:56:52;5.07;;;0.35;;
13445;SDS011;6795;51.232;3.764;2023-04-25T10:59:20;3.60;;;0.40;;
13445;SDS011;6795;51.232;3.764;2023-04-25T11:01:53;2.63;;;0.20;;
13445;SDS011;6795;51.232;3.764;2023-04-25T11:04:23;2.42;;;0.20;;
13445;SDS011;6795;51.232;3.764;2023-04-25T11:07:04;1.10;;;0.10;;
13445;SDS011;6795;51.232;3.764;2023-04-25T11:09:39;1.40;;;0.30;;
13445;SDS011;6795;51.232;3.764;2023-04-25T11:12:08;0.40;;;0.10;;
13445;SDS011;6795;51.232;3.764;2023-04-25T11:14:58;4.57;;;0.10;;
13445;SDS011;6795;51.232;3.764;2023-04-25T11:17:34;4.85;;;0.45;;
13445;SDS011;6795;51.232;3.764;2023-04-25T11:20:05;2.30;;;0.28;;
13445;SDS011;6795;51.232;3.764;2023-04-25T11:22:37;2.15;;;0.20;;
13445;SDS011;6795;51.232;3.764;2023-04-25T11:25:09;1.00;;;0.20;;
13445;SDS011;6795;51.232;3.764;2023-04-25T11:27:39;1.90;;;0.32;;
13445;SDS011;6795;51.232;3.764;2023-04-25T11:30:18;3.35;;;0.20;;
13445;SDS011;6795;51.232;3.764;2023-04-25T11:32:47;1.45;;;0.30;;
13445;SDS011;6795;51.232;3.764;2023-04-25T11:35:17;2.70;;;0.25;;
13445;SDS011;6795;51.232;3.764;2023-04-25T11:37:46;1.13;;;0.20;;
13445;SDS011;6795;51.232;3.764;2023-04-25T11:40:15;2.67;;;0.25;;
13445;SDS011;6795;51.232;3.764;2023-04-25T11:42:44;4.65;;;0.30;;
13445;SDS011;6795;51.232;3.764;2023-04-25T11:45:13;1.83;;;0.32;;
13445;SDS011;6795;51.232;3.764;2023-04-25T11:47:42;1.33;;;0.17;;
13445;SDS011;6795;51.232;3.764;2023-04-25T11:50:11;0.73;;;0.13;;
13445;SDS011;6795;51.232;3.764;2023-04-25T11:52:42;1.58;;;0.38;;
13445;SDS011;6795;51.232;3.764;2023-04-25T11:55:13;2.25;;;0.15;;
13445;SDS011;6795;51.232;3.764;2023-04-25T11:57:42;0.30;;;0.30;;
13445;SDS011;6795;51.232;3.764;2023-04-25T12:00:11;0.60;;;0.10;;
13445;SDS011;6795;51.232;3.764;2023-04-25T12:02:45;4.10;;;0.65;;
13445;SDS011;6795;51.232;3.764;2023-04-25T12:05:15;0.77;;;0.10;;
13445;SDS011;6795;51.232;3.764;2023-04-25T12:07:48;1.67;;;0.20;;
13445;SDS011;6795;51.232;3.764;2023-04-25T12:10:17;1.15;;;0.05;;
13445;SDS011;6795;51.232;3.764;2023-04-25T12:12:46;3.38;;;0.30;;
13445;SDS011;6795;51.232;3.764;2023-04-25T12:15:16;4.32;;;0.50;;
13445;SDS011;6795;51.232;3.764;2023-04-25T12:17:46;0.68;;;0.10;;
13445;SDS011;6795;51.232;3.764;2023-04-25T12:20:15;1.30;;;0.15;;
13445;SDS011;6795;51.232;3.764;2023-04-25T12:22:44;1.77;;;0.40;;
13445;SDS011;6795;51.232;3.764;2023-04-25T12:25:33;1.65;;;0.30;;
13445;SDS011;6795;51.232;3.764;2023-04-25T12:28:09;3.88;;;0.20;;
13445;SDS011;6795;51.232;3.764;2023-04-25T12:30:57;1.98;;;0.20;;
13445;SDS011;6795;51.232;3.764;2023-04-25T12:33:28;0.57;;;0.25;;
13445;SDS011;6795;51.232;3.764;2023-04-25T12:35:57;1.85;;;0.20;;
13445;SDS011;6795;51.232;3.764;2023-04-25T12:38:27;0.63;;;0.15;;
13445;SDS011;6795;51.232;3.764;2023-04-25T12:40:58;3.10;;;0.60;;
13445;SDS011;6795;51.232;3.764;2023-04-25T12:43:26;1.00;;;0.10;;
13445;SDS011;6795;51.232;3.764;2023-04-25T12:45:55;1.80;;;0.50;;
13445;SDS011;6795;51.232;3.764;2023-04-25T12:48:24;3.03;;;0.30;;
13445;SDS011;6795;51.232;3.764;2023-04-25T12:50:53;2.38;;;0.20;;
13445;SDS011;6795;51.232;3.764;2023-04-25T12:53:22;9.05;;;0.60;;
13445;SDS011;6795;51.232;3.764;2023-04-25T12:55:51;2.17;;;0.30;;
13445;SDS011;6795;51.232;3.764;2023-04-25T12:58:25;5.47;;;0.50;;
13445;SDS011;6795;51.232;3.764;2023-04-25T13:00:54;7.18;;;0.77;;
13445;SDS011;6795;51.232;3.764;2023-04-25T13:03:22;3.40;;;0.32;;
13445;SDS011;6795;51.232;3.764;2023-04-25T13:05:52;4.78;;;0.17;;
13445;SDS011;6795;51.232;3.764;2023-04-25T13:08:21;6.80;;;0.40;;
13445;SDS011;6795;51.232;3.764;2023-04-25T13:10:50;1.90;;;0.40;;
13445;SDS011;6795;51.232;3.764;2023-04-25T13:13:18;3.58;;;0.35;;
13445;SDS011;6795;51.232;3.764;2023-04-25T13:15:48;2.65;;;0.70;;
13445;SDS011;6795;51.232;3.764;2023-04-25T13:18:18;1.58;;;0.20;;
13445;SDS011;6795;51.232;3.764;2023-04-25T13:20:47;0.73;;;0.20;;
13445;SDS011;6795;51.232;3.764;2023-04-25T13:23:24;0.60;;;0.10;;
13445;SDS011;6795;51.232;3.764;2023-04-25T13:26:46;1.52;;;0.30;;
13445;SDS011;6795;51.232;3.764;2023-04-25T13:30:19;4.53;;;0.40;;
13445;SDS011;6795;51.232;3.764;2023-04-25T13:36:59;2.30;;;0.10;;
13445;SDS011;6795;51.232;3.764;2023-04-25T13:39:42;0.65;;;0.10;;
13445;SDS011;6795;51.232;3.764;2023-04-25T13:42:53;2.38;;;0.10;;
13445;SDS011;6795;51.232;3.764;2023-04-25T13:46:08;1.65;;;0.10;;
13445;SDS011;6795;51.232;3.764;2023-04-25T13:49:15;4.32;;;0.20;;
13445;SDS011;6795;51.232;3.764;2023-04-25T13:52:33;0.88;;;0.20;;
13445;SDS011;6795;51.232;3.764;2023-04-25T13:55:26;1.45;;;0.20;;
13445;SDS011;6795;51.232;3.764;2023-04-25T13:58:47;0.88;;;0.10;;
13445;SDS011;6795;51.232;3.764;2023-04-25T14:01:49;1.92;;;0.25;;
13445;SDS011;6795;51.232;3.764;2023-04-25T14:04:59;2.47;;;0.28;;
13445;SDS011;6795;51.232;3.764;2023-04-25T14:07:58;1.98;;;0.13;;
13445;SDS011;6795;51.232;3.764;2023-04-25T14:11:08;0.63;;;0.10;;
13445;SDS011;6795;51.232;3.764;2023-04-25T14:14:22;3.40;;;0.10;;
13445;SDS011;6795;51.232;3.764;2023-04-25T14:17:16;4.00;;;0.20;;
13445;SDS011;6795;51.232;3.764;2023-04-25T14:20:28;1.13;;;0.10;;
13445;SDS011;6795;51.232;3.764;2023-04-25T14:23:27;1.42;;;0.30;;
13445;SDS011;6795;51.232;3.764;2023-04-25T14:26:33;0.57;;;0.20;;
13445;SDS011;6795;51.232;3.764;2023-04-25T14:30:12;1.08;;;0.10;;
13445;SDS011;6795;51.232;3.764;2023-04-25T14:33:20;3.20;;;0.30;;
13445;SDS011;6795;51.232;3.764;2023-04-25T14:36:28;1.65;;;0.17;;
13445;SDS011;6795;51.232;3.764;2023-04-25T14:39:44;0.70;;;0.20;;
13445;SDS011;6795;51.232;3.764;2023-04-25T14:42:35;2.92;;;0.43;;
13445;SDS011;6795;51.232;3.764;2023-04-25T14:45:37;0.73;;;0.10;;
13445;SDS011;6795;51.232;3.764;2023-04-25T14:48:47;1.10;;;0.22;;
13445;SDS011;6795;51.232;3.764;2023-04-25T14:54:46;3.08;;;0.30;;
13445;SDS011;6795;51.232;3.764;2023-04-25T14:57:52;2.55;;;0.30;;
13445;SDS011;6795;51.232;3.764;2023-04-25T15:01:09;6.93;;;1.88;;
13445;SDS011;6795;51.232;3.764;2023-04-25T15:04:18;3.67;;;0.30;;
13445;SDS011;6795;51.232;3.764;2023-04-25T15:07:14;3.20;;;0.20;;
13445;SDS011;6795;51.232;3.764;2023-04-25T15:10:17;2.22;;;0.40;;
13445;SDS011;6795;51.232;3.764;2023-04-25T15:13:22;4.53;;;0.63;;
13445;SDS011;6795;51.232;3.764;2023-04-25T15:16:35;3.72;;;0.30;;
13445;SDS011;6795;51.232;3.764;2023-04-25T15:20:02;1.20;;;0.30;;
13445;SDS011;6795;51.232;3.764;2023-04-25T15:23:17;3.67;;;0.50;;
13445;SDS011;6795;51.232;3.764;2023-04-25T15:26:43;6.10;;;0.50;;
13445;SDS011;6795;51.232;3.764;2023-04-25T15:29:42;2.75;;;0.30;;
13445;SDS011;6795;51.232;3.764;2023-04-25T15:33:12;1.17;;;0.30;;
13445;SDS011;6795;51.232;3.764;2023-04-25T15:36:21;1.55;;;0.20;;
13445;SDS011;6795;51.232;3.764;2023-04-25T15:39:21;2.00;;;0.30;;
13445;SDS011;6795;51.232;3.764;2023-04-25T15:42:48;3.47;;;0.50;;
13445;SDS011;6795;51.232;3.764;2023-04-25T15:49:52;4.88;;;0.38;;
13445;SDS011;6795;51.232;3.764;2023-04-25T15:53:05;1.75;;;0.40;;